Time;durP1;ratioP1;P1;durP2;ratioP2;P2;SDS_P1;SDS_P2;PMS_P1;PMS_P2;Temp;Humidity;BMP_temperature;BMP_pressure;BME280_temperature;BME280_humidity;BME280_pressure;Samples;Min_cycle;Max_cycle;Signal;HPM_P1;HPM_P2
2023/08/03 00:01:02;;;;;;;1.73;0.80;;;17.70;99.90;;;;;;6179032;23;20394;-75
2023/08/03 00:03:28;;;;;;;2.10;1.07;;;17.70;99.90;;;;;;6154322;23;20159;-75
2023/08/03 00:05:53;;;;;;;1.33;0.60;;;17.80;99.90;;;;;;6130790;23;20139;-74
2023/08/03 00:08:19;;;;;;;2.47;1.23;;;17.70;99.90;;;;;;6155069;23;20191;-75
2023/08/03 00:10:45;;;;;;;1.97;0.80;;;17.50;99.90;;;;;;6104635;23;20178;-74
2023/08/03 00:13:10;;;;;;;1.00;0.80;;;17.40;99.90;;;;;;6151713;23;20411;-73
2023/08/03 00:15:37;;;;;;;1.60;1.00;;;17.50;99.90;;;;;;6153087;23;20520;-74
2023/08/03 00:18:03;;;;;;;1.80;0.80;;;17.50;99.90;;;;;;6104401;23;20517;-74
2023/08/03 00:20:29;;;;;;;1.50;1.00;;;17.60;99.90;;;;;;6153506;23;20404;-73
2023/08/03 00:22:55;;;;;;;1.70;0.83;;;17.70;99.90;;;;;;6154270;23;20153;-75
2023/08/03 00:25:22;;;;;;;3.53;0.90;;;17.80;99.90;;;;;;6081419;23;20409;-75
2023/08/03 00:27:48;;;;;;;3.20;1.20;;;17.90;99.90;;;;;;6107772;23;20377;-73
2023/08/03 00:30:15;;;;;;;1.30;0.70;;;17.90;99.90;;;;;;6094743;23;20395;-74
2023/08/03 00:32:41;;;;;;;1.30;0.87;;;18.00;99.90;;;;;;6119711;23;20426;-74
2023/08/03 00:35:09;;;;;;;1.43;0.83;;;18.00;99.90;;;;;;6119287;23;20769;-74
2023/08/03 00:37:38;;;;;;;1.73;0.80;;;18.00;99.90;;;;;;6119804;23;20425;-73
2023/08/03 00:40:06;;;;;;;1.33;0.70;;;18.00;99.90;;;;;;6048946;23;20403;-74
2023/08/03 00:42:31;;;;;;;1.37;0.70;;;18.00;99.90;;;;;;6014158;23;20454;-74
2023/08/03 00:44:58;;;;;;;2.70;1.10;;;18.10;99.90;;;;;;6061871;23;20442;-73
2023/08/03 00:47:24;;;;;;;1.73;0.70;;;18.10;99.90;;;;;;6011821;23;20421;-73
2023/08/03 00:49:49;;;;;;;2.20;0.83;;;18.10;99.90;;;;;;6035654;23;20215;-72
2023/08/03 00:52:15;;;;;;;2.10;0.70;;;18.10;99.90;;;;;;5991000;23;20161;-73
2023/08/03 00:54:44;;;;;;;1.93;1.17;;;18.10;99.90;;;;;;6037950;23;20162;-73
2023/08/03 00:57:13;;;;;;;1.83;0.80;;;18.00;99.90;;;;;;6037778;23;20385;-73
2023/08/03 00:59:39;;;;;;;4.83;0.80;;;18.00;99.90;;;;;;6037153;23;20424;-74
2023/08/03 01:02:05;;;;;;;1.27;0.80;;;17.90;99.90;;;;;;6087277;23;20439;-75
2023/08/03 01:04:31;;;;;;;1.40;0.90;;;18.00;99.90;;;;;;6041049;23;20163;-74
2023/08/03 01:06:58;;;;;;;3.50;1.00;;;18.00;99.90;;;;;;6041949;23;20401;-73
2023/08/03 01:09:23;;;;;;;1.93;0.70;;;18.10;99.90;;;;;;6063454;23;20404;-74
2023/08/03 01:11:50;;;;;;;1.43;0.90;;;18.20;99.90;;;;;;6066213;23;20373;-73
2023/08/03 01:14:40;;;;;;;2.40;1.03;;;18.20;99.90;;;;;;6092028;23;20240;-76
2023/08/03 01:17:25;;;;;;;1.67;0.90;;;18.20;99.90;;;;;;6126727;23;20386;-75
2023/08/03 01:19:51;;;;;;;3.03;0.93;;;18.20;99.90;;;;;;6121894;23;20414;-75
2023/08/03 01:22:18;;;;;;;1.37;0.80;;;18.30;99.90;;;;;;6120115;23;20378;-74
2023/08/03 01:24:44;;;;;;;3.40;0.90;;;18.20;99.90;;;;;;6092574;23;20164;-76
2023/08/03 01:27:10;;;;;;;2.50;0.90;;;18.20;99.90;;;;;;6103983;23;20410;-74
2023/08/03 01:29:35;;;;;;;2.50;0.87;;;18.30;99.90;;;;;;6129944;23;20164;-76
2023/08/03 01:32:01;;;;;;;1.90;1.30;;;18.30;99.90;;;;;;6129956;23;20199;-76
2023/08/03 01:34:27;;;;;;;6.83;1.20;;;18.30;99.90;;;;;;6104510;23;20181;-75
2023/08/03 01:36:54;;;;;;;4.23;1.13;;;18.30;99.90;;;;;;6134835;23;20363;-74
2023/08/03 01:39:23;;;;;;;3.53;0.80;;;18.30;99.90;;;;;;6088860;23;20375;-74
2023/08/03 01:41:48;;;;;;;0.90;0.70;;;18.30;99.90;;;;;;6104026;23;20379;-76
2023/08/03 01:44:34;;;;;;;1.90;0.90;;;18.20;99.90;;;;;;6116933;23;20365;-74
2023/08/03 01:47:00;;;;;;;2.07;0.80;;;18.10;99.90;;;;;;6059074;23;20157;-76
2023/08/03 01:49:28;;;;;;;2.63;1.13;;;18.00;99.90;;;;;;6081028;23;20415;-74
2023/08/03 01:51:54;;;;;;;2.40;0.83;;;18.00;99.90;;;;;;6051702;23;20262;-76
2023/08/03 01:54:20;;;;;;;3.00;1.13;;;17.90;99.90;;;;;;6021006;23;20706;-76
2023/08/03 01:56:46;;;;;;;2.10;0.90;;;17.90;99.90;;;;;;6045466;23;20149;-75
2023/08/03 01:59:11;;;;;;;2.37;0.70;;;17.80;99.90;;;;;;6044459;23;20189;-75
2023/08/03 02:01:38;;;;;;;1.80;1.00;;;17.80;99.90;;;;;;6044546;23;20154;-74
2023/08/03 02:04:03;;;;;;;1.43;1.00;;;17.70;99.90;;;;;;6068758;23;20161;-75
2023/08/03 02:06:30;;;;;;;1.70;0.90;;;17.60;99.90;;;;;;6047847;23;20380;-75
2023/08/03 02:08:56;;;;;;;1.37;0.80;;;17.50;99.90;;;;;;6037086;23;20392;-75
2023/08/03 02:11:21;;;;;;;3.27;1.20;;;17.50;99.90;;;;;;6076299;23;20175;-75
2023/08/03 02:13:47;;;;;;;2.03;0.90;;;17.40;99.90;;;;;;6056386;23;20178;-75
2023/08/03 02:16:14;;;;;;;2.10;1.10;;;17.40;99.90;;;;;;6032050;23;20156;-75
2023/08/03 02:18:40;;;;;;;1.80;1.00;;;17.40;99.90;;;;;;6036675;23;20382;-74
2023/08/03 02:21:06;;;;;;;1.40;0.90;;;17.40;99.90;;;;;;6044801;23;20565;-75
2023/08/03 02:23:32;;;;;;;3.00;1.03;;;17.30;99.90;;;;;;6060810;23;20165;-73
2023/08/03 02:25:58;;;;;;;1.50;1.20;;;17.20;99.90;;;;;;6129683;23;20358;-75
2023/08/03 02:28:24;;;;;;;1.90;1.20;;;17.20;99.90;;;;;;6105025;23;20378;-75
2023/08/03 02:30:50;;;;;;;2.50;0.80;;;17.10;99.90;;;;;;6132096;23;20392;-76
2023/08/03 02:33:17;;;;;;;3.10;0.90;;;17.10;99.90;;;;;;6085787;23;20457;-75
2023/08/03 02:35:42;;;;;;;1.80;0.83;;;17.00;99.90;;;;;;6089470;23;20503;-75
2023/08/03 02:38:09;;;;;;;2.67;0.90;;;17.00;99.90;;;;;;6100591;23;20166;-74
2023/08/03 02:40:34;;;;;;;2.73;1.23;;;16.90;99.90;;;;;;6112448;23;20168;-74
2023/08/03 02:43:00;;;;;;;3.37;1.10;;;17.00;99.90;;;;;;6105104;23;20704;-74
2023/08/03 02:45:29;;;;;;;1.43;0.70;;;17.00;99.90;;;;;;6104014;23;20163;-75
2023/08/03 02:47:55;;;;;;;2.10;1.03;;;17.00;99.90;;;;;;6104743;23;20361;-75
2023/08/03 02:50:22;;;;;;;4.07;1.10;;;17.00;99.90;;;;;;6140526;23;20336;-76
2023/08/03 02:52:51;;;;;;;2.23;0.90;;;17.00;99.90;;;;;;6133347;23;20673;-75
2023/08/03 02:55:17;;;;;;;1.37;0.80;;;17.10;99.90;;;;;;6132127;23;20382;-75
2023/08/03 02:57:44;;;;;;;4.03;1.10;;;17.00;99.90;;;;;;6133081;23;20380;-76
2023/08/03 03:00:11;;;;;;;3.97;1.33;;;17.00;99.90;;;;;;6132482;23;20455;-76
2023/08/03 03:02:38;;;;;;;1.83;0.87;;;16.90;99.90;;;;;;6159361;23;20368;-74
2023/08/03 03:05:05;;;;;;;1.13;0.70;;;16.90;99.90;;;;;;6158072;23;20598;-74
2023/08/03 03:07:34;;;;;;;4.10;1.00;;;17.00;99.90;;;;;;6132714;23;20598;-75
2023/08/03 03:10:01;;;;;;;4.47;2.73;;;17.10;99.90;;;;;;6132806;23;20409;-75
2023/08/03 03:12:27;;;;;;;5.80;2.10;;;17.00;99.90;;;;;;6139102;23;20404;-73
2023/08/03 03:14:53;;;;;;;2.90;0.90;;;17.10;99.90;;;;;;6127930;23;20152;-74
2023/08/03 03:17:19;;;;;;;3.13;1.13;;;17.20;99.90;;;;;;6150814;23;20145;-75
2023/08/03 03:19:48;;;;;;;1.83;0.90;;;17.20;99.90;;;;;;6154073;23;20392;-74
2023/08/03 03:22:14;;;;;;;1.90;0.80;;;17.30;99.90;;;;;;6129192;23;20379;-74
2023/08/03 03:24:41;;;;;;;1.07;0.83;;;17.20;99.90;;;;;;6153263;23;20361;-74
2023/08/03 03:27:08;;;;;;;4.83;1.00;;;17.30;99.90;;;;;;6155210;23;20370;-74
2023/08/03 03:29:43;;;;;;;1.50;1.00;;;17.20;99.90;;;;;;6151970;23;20400;-75
2023/08/03 03:32:09;;;;;;;1.67;1.00;;;17.10;99.90;;;;;;6129312;23;20367;-74
2023/08/03 03:34:35;;;;;;;1.33;0.73;;;16.90;99.90;;;;;;6128090;23;20596;-74
2023/08/03 03:37:02;;;;;;;1.17;0.60;;;16.70;99.90;;;;;;6153876;23;20232;-77
2023/08/03 03:39:30;;;;;;;1.20;0.90;;;16.60;99.90;;;;;;6151472;23;20406;-73
2023/08/03 03:42:01;;;;;;;0.90;0.70;;;16.50;99.90;;;;;;6126772;23;20418;-73
2023/08/03 03:44:28;;;;;;;1.37;0.63;;;16.50;99.90;;;;;;6126573;23;20367;-74
2023/08/03 03:46:54;;;;;;;1.50;0.70;;;16.50;99.90;;;;;;6101771;23;20376;-74
2023/08/03 03:49:21;;;;;;;1.90;0.73;;;16.50;99.90;;;;;;6150741;23;20475;-75
2023/08/03 03:51:46;;;;;;;0.90;0.60;;;16.60;99.90;;;;;;6138759;23;20428;-74
2023/08/03 03:54:13;;;;;;;0.90;0.70;;;16.60;99.90;;;;;;6139629;23;20230;-73
2023/08/03 03:56:39;;;;;;;1.37;0.77;;;16.70;99.90;;;;;;6133303;23;20689;-74
2023/08/03 03:59:04;;;;;;;1.00;0.63;;;16.70;99.90;;;;;;6131784;23;20510;-77
2023/08/03 04:01:31;;;;;;;1.20;0.70;;;16.80;99.90;;;;;;6141587;23;20147;-74
2023/08/03 04:03:57;;;;;;;1.30;0.70;;;16.80;99.90;;;;;;6122520;23;20379;-73
2023/08/03 04:06:23;;;;;;;2.40;1.30;;;16.80;99.90;;;;;;6122525;23;20158;-74
2023/08/03 04:08:49;;;;;;;1.57;0.70;;;16.60;99.90;;;;;;6146514;23;20156;-74
2023/08/03 04:11:14;;;;;;;1.50;0.70;;;16.40;99.90;;;;;;6150987;23;20178;-73
2023/08/03 04:13:40;;;;;;;1.00;0.67;;;16.20;99.90;;;;;;6123275;23;20478;-74
2023/08/03 04:16:05;;;;;;;1.57;0.50;;;16.10;99.90;;;;;;6147950;23;20493;-73
2023/08/03 04:18:33;;;;;;;0.90;0.77;;;16.00;99.90;;;;;;6149053;23;20416;-75
2023/08/03 04:20:59;;;;;;;1.10;0.80;;;15.90;99.90;;;;;;6150460;23;20409;-74
2023/08/03 04:23:24;;;;;;;1.10;0.70;;;16.00;99.90;;;;;;6123317;23;20376;-73
2023/08/03 04:25:52;;;;;;;1.53;0.90;;;16.00;99.90;;;;;;6149396;23;20140;-74
2023/08/03 04:28:24;;;;;;;1.87;0.67;;;15.90;99.90;;;;;;6151203;23;20399;-76
2023/08/03 04:30:50;;;;;;;1.63;0.70;;;16.00;99.90;;;;;;6151453;23;20398;-74
2023/08/03 04:33:16;;;;;;;1.33;0.80;;;16.10;99.90;;;;;;6155139;23;20413;-74
2023/08/03 04:35:42;;;;;;;3.03;1.00;;;16.10;99.90;;;;;;6129786;23;20177;-73
2023/08/03 04:38:12;;;;;;;1.77;0.90;;;16.20;99.90;;;;;;6106509;23;20155;-74
2023/08/03 04:40:45;;;;;;;1.33;0.80;;;16.10;99.90;;;;;;6131322;23;20414;-74
2023/08/03 04:43:11;;;;;;;1.33;0.83;;;16.20;99.90;;;;;;6130042;23;20899;-74
2023/08/03 04:45:38;;;;;;;2.30;0.90;;;16.20;99.90;;;;;;6130774;23;20382;-74
2023/08/03 04:48:04;;;;;;;1.20;0.80;;;16.20;99.90;;;;;;6130420;23;20144;-74
2023/08/03 04:50:32;;;;;;;0.97;0.70;;;16.20;99.90;;;;;;6102173;23;20423;-74
2023/08/03 04:53:00;;;;;;;1.17;0.60;;;16.30;99.90;;;;;;6101177;23;20420;-74
2023/08/03 04:55:25;;;;;;;0.90;0.70;;;16.30;99.90;;;;;;6100815;23;20420;-74
2023/08/03 04:57:55;;;;;;;2.00;1.03;;;16.40;99.90;;;;;;6151065;23;20357;-74
2023/08/03 05:00:25;;;;;;;1.77;1.07;;;16.60;99.90;;;;;;6127367;23;20203;-74
2023/08/03 05:02:54;;;;;;;1.57;0.90;;;16.70;99.90;;;;;;6127695;23;20384;-74
2023/08/03 05:05:21;;;;;;;2.80;1.20;;;16.80;99.90;;;;;;6080961;23;20373;-74
2023/08/03 05:07:48;;;;;;;2.17;0.87;;;16.80;99.90;;;;;;6080944;23;20404;-77
2023/08/03 05:10:20;;;;;;;1.20;0.70;;;16.90;99.90;;;;;;6056905;23;20415;-74
2023/08/03 05:12:48;;;;;;;1.93;0.80;;;17.00;99.90;;;;;;6102287;23;20490;-73
2023/08/03 05:15:14;;;;;;;2.13;0.83;;;17.10;99.90;;;;;;6126758;23;20407;-74
2023/08/03 05:17:44;;;;;;;2.30;0.60;;;17.20;99.90;;;;;;6079811;23;20380;-73
2023/08/03 05:20:13;;;;;;;2.63;0.80;;;17.30;99.90;;;;;;6102712;23;20424;-75
2023/08/03 05:22:39;;;;;;;1.80;0.80;;;17.40;99.90;;;;;;6126040;23;20385;-74
2023/08/03 05:25:10;;;;;;;2.40;1.00;;;17.40;99.90;;;;;;6103475;23;20367;-78
2023/08/03 05:27:39;;;;;;;1.83;0.73;;;17.40;99.90;;;;;;6102455;23;20368;-75
2023/08/03 05:30:07;;;;;;;2.50;0.90;;;17.50;99.90;;;;;;6143426;23;20425;-76
2023/08/03 05:32:33;;;;;;;1.00;0.70;;;17.50;99.90;;;;;;6136680;23;20404;-74
2023/08/03 05:35:01;;;;;;;1.93;0.80;;;17.60;99.90;;;;;;6186259;23;20372;-76
2023/08/03 05:37:28;;;;;;;1.33;0.70;;;17.70;99.90;;;;;;6211482;23;20357;-76
2023/08/03 05:39:57;;;;;;;9.00;1.40;;;17.70;99.90;;;;;;6111902;23;20420;-75
2023/08/03 05:42:36;;;;;;;1.27;0.93;;;17.80;99.90;;;;;;6186242;23;20425;-73
2023/08/03 05:45:14;;;;;;;2.00;1.03;;;18.00;99.90;;;;;;6187005;23;20363;-76
2023/08/03 05:47:40;;;;;;;2.80;1.20;;;18.00;99.90;;;;;;6185826;23;20411;-76
2023/08/03 05:52:57;;;;;;;1.10;0.70;;;18.30;99.90;;;;;;6203977;23;20491;-76
2023/08/03 05:55:25;;;;;;;2.17;0.70;;;18.40;99.90;;;;;;6161697;23;20467;-78
2023/08/03 05:57:54;;;;;;;1.20;0.70;;;18.40;99.90;;;;;;6210777;23;20358;-75
2023/08/03 06:00:24;;;;;;;2.10;0.70;;;18.40;99.90;;;;;;6170664;23;20434;-75
2023/08/03 06:02:55;;;;;;;1.20;0.80;;;18.40;99.90;;;;;;6131221;23;20375;-73
2023/08/03 06:05:50;;;;;;;1.40;1.10;;;18.40;99.90;;;;;;6133441;23;20373;-76
2023/08/03 06:08:27;;;;;;;2.10;1.07;;;18.30;99.90;;;;;;6156334;23;20358;-75
2023/08/03 06:11:17;;;;;;;3.77;1.27;;;18.30;99.90;;;;;;6157265;23;20440;-76
2023/08/03 06:13:44;;;;;;;3.10;1.23;;;18.20;99.90;;;;;;6132133;23;20406;-76
2023/08/03 06:16:12;;;;;;;1.80;0.80;;;18.20;99.90;;;;;;6133207;23;20381;-76
2023/08/03 06:21:29;;;;;;;1.77;0.90;;;18.10;99.90;;;;;;6215346;23;20431;-76
2023/08/03 06:23:57;;;;;;;2.57;1.37;;;18.10;99.90;;;;;;6148572;23;20454;-75
2023/08/03 06:26:36;;;;;;;1.87;1.00;;;18.10;99.90;;;;;;6151418;23;20382;-76
2023/08/03 06:29:06;;;;;;;1.77;0.87;;;18.10;99.90;;;;;;6129695;23;20455;-77
2023/08/03 06:31:39;;;;;;;1.40;0.70;;;18.10;99.90;;;;;;6127730;23;20471;-76
2023/08/03 06:34:12;;;;;;;1.53;0.97;;;18.20;99.90;;;;;;6102885;23;20440;-77
2023/08/03 06:36:44;;;;;;;1.60;1.00;;;18.20;99.90;;;;;;6101276;23;20388;-76
2023/08/03 06:39:11;;;;;;;1.10;0.93;;;18.20;99.90;;;;;;6124002;23;20466;-76
2023/08/03 06:41:37;;;;;;;1.63;0.70;;;18.20;99.90;;;;;;6076957;23;20391;-76
2023/08/03 06:44:05;;;;;;;1.77;0.63;;;18.20;99.90;;;;;;6102911;23;20364;-76
2023/08/03 06:46:31;;;;;;;1.10;0.90;;;18.20;99.90;;;;;;6100609;23;20462;-76
2023/08/03 06:48:57;;;;;;;7.23;2.37;;;18.20;99.90;;;;;;6096299;23;20360;-76
2023/08/03 06:51:24;;;;;;;3.60;1.27;;;18.30;99.90;;;;;;6095816;23;20435;-76
2023/08/03 06:53:55;;;;;;;3.00;1.00;;;18.20;99.90;;;;;;6095324;23;20462;-77
2023/08/03 06:56:22;;;;;;;1.70;0.80;;;18.10;99.90;;;;;;6119719;23;20432;-76
2023/08/03 06:59:03;;;;;;;1.03;0.70;;;17.90;99.90;;;;;;6094308;23;20387;-76
2023/08/03 07:01:30;;;;;;;1.00;0.70;;;17.60;99.90;;;;;;6152817;23;20430;-76
2023/08/03 07:03:56;;;;;;;2.80;0.90;;;17.40;99.90;;;;;;6127341;23;20379;-76
2023/08/03 07:06:23;;;;;;;1.80;1.13;;;17.20;99.90;;;;;;6127327;23;20371;-75
2023/08/03 07:08:50;;;;;;;1.57;0.80;;;16.90;99.90;;;;;;6176902;23;20381;-76
2023/08/03 07:11:21;;;;;;;1.70;0.80;;;16.70;99.90;;;;;;6176774;23;20401;-76
2023/08/03 07:13:48;;;;;;;1.10;0.83;;;16.50;99.90;;;;;;6104302;23;20461;-76
2023/08/03 07:16:14;;;;;;;1.30;0.93;;;16.30;99.90;;;;;;6127432;23;20392;-76
2023/08/03 07:18:41;;;;;;;1.87;1.00;;;16.20;99.90;;;;;;6147589;23;20537;-76
2023/08/03 07:21:19;;;;;;;2.07;1.27;;;16.10;99.90;;;;;;6182233;23;20198;-78
2023/08/03 07:23:47;;;;;;;2.60;1.20;;;16.00;99.90;;;;;;6125561;23;20382;-77
2023/08/03 07:26:16;;;;;;;2.07;1.30;;;15.90;99.90;;;;;;6059903;23;20476;-76
2023/08/03 07:28:44;;;;;;;2.50;1.43;;;15.80;99.90;;;;;;6037611;23;20382;-75
2023/08/03 07:31:14;;;;;;;3.07;1.30;;;15.80;99.90;;;;;;6012726;23;20415;-75
2023/08/03 07:33:40;;;;;;;1.93;1.40;;;15.80;99.90;;;;;;6037254;23;20528;-75
2023/08/03 07:36:07;;;;;;;2.27;1.10;;;15.90;99.90;;;;;;6017258;23;20383;-76
2023/08/03 07:38:34;;;;;;;1.50;1.33;;;15.80;99.90;;;;;;6016816;23;20416;-79
2023/08/03 07:44:09;;;;;;;1.40;1.30;;;16.00;99.90;;;;;;6212842;23;20465;-79
2023/08/03 07:46:39;;;;;;;2.33;1.40;;;16.00;99.90;;;;;;6117808;23;20386;-75
2023/08/03 07:49:08;;;;;;;2.63;1.40;;;16.10;99.90;;;;;;6138371;23;20446;-77
2023/08/03 07:54:42;;;;;;;1.27;1.17;;;16.10;99.90;;;;;;6096976;23;20477;-77
2023/08/03 07:57:15;;;;;;;1.50;1.33;;;16.10;99.90;;;;;;6072542;23;20378;-76
2023/08/03 07:59:55;;;;;;;1.83;1.37;;;16.20;99.90;;;;;;6072400;23;20941;-76
2023/08/03 08:02:23;;;;;;;1.30;1.10;;;16.10;99.90;;;;;;6003725;23;20368;-76
2023/08/03 08:04:57;;;;;;;1.87;1.10;;;16.10;99.90;;;;;;6050724;23;20482;-75
2023/08/03 08:07:25;;;;;;;1.40;1.30;;;16.10;99.90;;;;;;6047540;23;20384;-77
2023/08/03 08:09:53;;;;;;;1.40;1.13;;;16.10;99.90;;;;;;6113497;23;20420;-76
2023/08/03 08:12:20;;;;;;;1.30;1.20;;;16.10;99.90;;;;;;6134016;23;20374;-76
2023/08/03 08:14:50;;;;;;;2.20;1.40;;;16.00;99.90;;;;;;6160759;23;20395;-76
2023/08/03 08:17:17;;;;;;;1.30;1.17;;;15.90;99.90;;;;;;6157646;23;20368;-76
2023/08/03 08:19:46;;;;;;;2.77;1.50;;;15.90;99.90;;;;;;6183786;23;20736;-76
2023/08/03 08:22:15;;;;;;;1.53;1.43;;;15.90;99.90;;;;;;6134005;23;20392;-76
2023/08/03 08:24:45;;;;;;;1.60;1.40;;;16.00;99.90;;;;;;6157647;23;20383;-75
2023/08/03 08:27:12;;;;;;;2.23;1.43;;;16.00;99.90;;;;;;6133878;23;20369;-78
2023/08/03 08:30:12;;;;;;;1.50;1.30;;;16.00;99.90;;;;;;6142318;23;20468;-76
2023/08/03 08:38:16;;;;;;;1.87;1.27;;;16.10;99.90;;;;;;6231879;23;20445;-76
2023/08/03 08:40:47;;;;;;;2.60;1.43;;;16.00;99.90;;;;;;6160246;23;20444;-77
2023/08/03 08:43:22;;;;;;;2.13;1.33;;;16.20;99.90;;;;;;6187586;23;20386;-76
2023/08/03 08:46:11;;;;;;;1.53;1.43;;;16.20;99.90;;;;;;6137550;23;20371;-76
2023/08/03 08:48:37;;;;;;;3.47;2.30;;;16.20;99.90;;;;;;6162026;23;20363;-78
2023/08/03 08:51:18;;;;;;;2.40;2.20;;;16.30;99.90;;;;;;6212125;23;20401;-76
2023/08/03 08:53:46;;;;;;;1.90;1.40;;;16.30;99.90;;;;;;6165047;23;20445;-78
2023/08/03 08:56:24;;;;;;;1.80;1.63;;;16.50;99.90;;;;;;6163083;23;20452;-77
2023/08/03 08:59:05;;;;;;;1.60;1.50;;;16.40;99.90;;;;;;6187560;23;20398;-78
2023/08/03 09:02:14;;;;;;;3.10;1.30;;;16.70;99.90;;;;;;6187654;23;20382;-78
2023/08/03 09:04:51;;;;;;;4.07;1.30;;;16.70;99.90;;;;;;6213756;23;20358;-77
2023/08/03 09:07:50;;;;;;;3.83;1.80;;;16.80;99.90;;;;;;6164836;23;20398;-78
2023/08/03 09:10:56;;;;;;;1.27;1.00;;;16.70;99.90;;;;;;6212996;23;20408;-77
2023/08/03 09:13:49;;;;;;;1.43;1.30;;;16.50;99.90;;;;;;6164397;23;20412;-78
2023/08/03 09:25:06;;;;;;;1.67;0.90;;;17.10;99.90;;;;;;6184568;23;21322;-77
2023/08/03 09:27:54;;;;;;;1.90;1.03;;;17.40;99.90;;;;;;6066894;23;20363;-78
2023/08/03 09:30:43;;;;;;;2.37;1.27;;;17.50;99.90;;;;;;5986600;23;20399;-78
2023/08/03 09:33:16;;;;;;;1.10;0.90;;;17.60;99.90;;;;;;6008733;23;20455;-78
2023/08/03 09:36:20;;;;;;;2.10;0.93;;;17.70;99.90;;;;;;6008495;23;20375;-79
2023/08/03 09:39:16;;;;;;;1.63;1.50;;;18.00;99.90;;;;;;5981427;23;20377;-78
2023/08/03 12:31:09;;;;;;;4.07;2.10;;;22.80;88.50;;;;;;6200288;22;20506;-80
2023/08/03 12:34:03;;;;;;;4.23;1.50;;;23.10;86.00;;;;;;6149260;23;20436;-79
2023/08/03 12:59:13;;;;;;;5.47;2.07;;;22.90;83.30;;;;;;6149285;23;20422;-79
2023/08/03 13:01:46;;;;;;;4.73;1.63;;;22.70;84.90;;;;;;6220118;23;20411;-79
2023/08/03 13:18:05;;;;;;;7.73;1.97;;;23.10;84.30;;;;;;6188888;23;20449;-79
2023/08/03 13:39:46;;;;;;;6.17;2.00;;;22.60;88.00;;;;;;6172389;23;20440;-80
2023/08/03 13:42:47;;;;;;;4.70;1.87;;;21.70;97.70;;;;;;6213417;23;20374;-80
2023/08/03 14:13:19;;;;;;;2.47;1.20;;;22.40;93.50;;;;;;6176656;23;20480;-78
2023/08/03 14:50:54;;;;;;;1.60;1.00;;;21.30;99.90;;;;;;6174107;23;20440;-79
2023/08/03 16:54:02;;;;;;;7.77;2.60;;;19.30;99.90;;;;;;6174559;23;20460;-79
2023/08/03 17:22:22;;;;;;;6.13;2.87;;;18.60;99.90;;;;;;6206998;23;20444;-81
2023/08/03 17:28:25;;;;;;;8.80;3.83;;;18.30;99.90;;;;;;6183662;23;20426;-79
2023/08/03 18:30:35;;;;;;;7.63;3.47;;;18.70;99.90;;;;;;6187274;23;20437;-79
2023/08/03 18:51:28;;;;;;;5.57;3.53;;;17.90;99.90;;;;;;6209242;22;20432;-79
2023/08/03 18:54:24;;;;;;;5.60;4.20;;;17.80;99.90;;;;;;6123342;23;20438;-79
2023/08/03 18:59:48;;;;;;;5.67;3.80;;;17.70;99.90;;;;;;6194912;23;20456;-79
2023/08/03 19:02:16;;;;;;;7.67;3.70;;;17.60;99.90;;;;;;6162795;23;20426;-79
2023/08/03 19:16:08;;;;;;;6.30;4.33;;;17.10;99.90;;;;;;6205470;23;20453;-79
2023/08/03 19:27:51;;;;;;;6.20;3.30;;;16.60;99.90;;;;;;6201509;23;20530;-80
2023/08/03 19:33:26;;;;;;;9.50;5.40;;;16.30;99.90;;;;;;6198701;23;20433;-79
2023/08/03 19:42:49;;;;;;;7.77;4.83;;;16.10;99.90;;;;;;6191885;23;20457;-78
2023/08/03 19:45:42;;;;;;;10.93;6.23;;;16.00;99.90;;;;;;6212247;23;20374;-77
2023/08/03 19:48:31;;;;;;;7.93;6.30;;;15.90;99.90;;;;;;6139382;23;20453;-78
2023/08/03 19:50:58;;;;;;;12.37;6.13;;;15.90;99.90;;;;;;6168386;23;20467;-79
2023/08/03 19:53:53;;;;;;;7.27;5.83;;;15.80;99.90;;;;;;6169927;23;20420;-78
2023/08/03 19:56:22;;;;;;;9.70;5.47;;;15.90;99.90;;;;;;6127730;23;20395;-78
2023/08/03 19:59:01;;;;;;;10.90;7.60;;;15.90;99.90;;;;;;6109429;23;20443;-78
2023/08/03 20:07:10;;;;;;;8.73;6.60;;;15.80;99.90;;;;;;6204074;22;20441;-79
2023/08/03 20:19:27;;;;;;;8.80;7.57;;;15.70;99.90;;;;;;6152697;23;20443;-79
2023/08/03 20:21:53;;;;;;;12.37;8.60;;;15.70;99.90;;;;;;6104339;23;20391;-79
2023/08/03 20:24:28;;;;;;;8.50;7.70;;;15.80;99.90;;;;;;6121624;23;20385;-79
2023/08/03 20:26:59;;;;;;;8.90;7.97;;;15.90;99.90;;;;;;6100666;23;20416;-79
2023/08/03 20:32:01;;;;;;;8.37;7.47;;;15.90;99.90;;;;;;6203202;23;20512;-78
2023/08/03 20:34:27;;;;;;;10.47;7.63;;;15.80;99.90;;;;;;6185367;23;20414;-79
2023/08/03 20:36:53;;;;;;;10.63;8.57;;;15.90;99.90;;;;;;6161778;23;20377;-79
2023/08/03 20:39:29;;;;;;;10.83;8.87;;;15.90;99.90;;;;;;6160117;23;20147;-76
2023/08/03 20:41:57;;;;;;;11.07;7.53;;;16.00;99.90;;;;;;6125573;23;20391;-78
2023/08/03 20:44:28;;;;;;;8.30;7.20;;;15.90;99.90;;;;;;6101690;23;20388;-80
2023/08/03 20:46:56;;;;;;;9.47;7.27;;;15.90;99.90;;;;;;6125372;23;20443;-78
2023/08/03 20:49:24;;;;;;;13.23;9.90;;;15.80;99.90;;;;;;6098429;23;20439;-77
2023/08/03 20:51:50;;;;;;;10.93;7.37;;;15.90;99.90;;;;;;6100856;23;20376;-77
2023/08/03 20:54:16;;;;;;;11.33;8.27;;;15.90;99.90;;;;;;6100090;23;20427;-77
2023/08/03 20:56:44;;;;;;;10.70;8.60;;;15.90;99.90;;;;;;6101212;23;20392;-77
2023/08/03 20:59:11;;;;;;;10.67;7.77;;;15.90;99.90;;;;;;6126172;23;20384;-77
2023/08/03 21:01:39;;;;;;;9.37;7.30;;;15.90;99.90;;;;;;6124269;23;20406;-78
2023/08/03 21:04:05;;;;;;;9.90;8.17;;;15.90;99.90;;;;;;6125177;23;20151;-78
2023/08/03 21:06:32;;;;;;;12.97;7.80;;;15.70;99.90;;;;;;6098925;23;20368;-76
2023/08/03 21:08:59;;;;;;;12.53;8.40;;;15.70;99.90;;;;;;6146599;23;20139;-76
2023/08/03 21:11:24;;;;;;;13.10;8.90;;;15.80;99.90;;;;;;6097478;23;20406;-76
2023/08/03 21:13:52;;;;;;;11.37;8.00;;;15.80;99.90;;;;;;6179324;23;20422;-79
2023/08/03 21:16:18;;;;;;;12.53;8.40;;;15.70;99.90;;;;;;6133727;23;20382;-76
2023/08/03 21:18:46;;;;;;;11.17;8.10;;;15.70;99.90;;;;;;6181959;23;20147;-76
2023/08/03 21:21:15;;;;;;;11.93;8.23;;;15.70;99.90;;;;;;6159079;23;20382;-77
2023/08/03 21:23:41;;;;;;;11.97;8.80;;;15.60;99.90;;;;;;6157452;23;20365;-77
2023/08/03 21:26:09;;;;;;;14.37;8.93;;;15.70;99.90;;;;;;6159789;23;20385;-79
2023/08/03 21:28:37;;;;;;;12.23;8.47;;;15.70;99.90;;;;;;6159373;23;20374;-78
2023/08/03 21:31:04;;;;;;;14.80;8.20;;;15.70;99.90;;;;;;6207044;23;20433;-77
2023/08/03 21:33:31;;;;;;;12.27;8.13;;;15.70;99.90;;;;;;6159014;23;20455;-77
2023/08/03 21:36:02;;;;;;;13.10;9.77;;;15.80;99.90;;;;;;6158360;23;20381;-77
2023/08/03 21:38:28;;;;;;;21.33;10.17;;;15.70;99.90;;;;;;6132006;23;20436;-76
2023/08/03 21:40:54;;;;;;;14.07;9.50;;;15.70;99.90;;;;;;6176708;23;20432;-78
2023/08/03 21:43:21;;;;;;;15.10;9.93;;;15.70;99.90;;;;;;6125361;23;20382;-78
2023/08/03 21:45:48;;;;;;;21.93;10.30;;;15.70;99.90;;;;;;6153043;23;20143;-78
2023/08/03 21:48:16;;;;;;;20.23;10.30;;;15.60;99.90;;;;;;6153536;23;20430;-76
2023/08/03 21:50:42;;;;;;;13.47;9.50;;;15.50;99.90;;;;;;6153739;23;20395;-77
2023/08/03 21:53:11;;;;;;;13.57;10.23;;;15.50;99.90;;;;;;6154271;23;20450;-77
2023/08/03 21:55:40;;;;;;;16.67;9.20;;;15.50;99.90;;;;;;6126628;23;20760;-78
2023/08/03 21:58:07;;;;;;;12.20;8.17;;;15.60;99.90;;;;;;6063621;23;20374;-77
2023/08/03 22:00:37;;;;;;;12.60;8.10;;;15.60;99.90;;;;;;6064091;23;20400;-78
2023/08/03 22:03:08;;;;;;;16.50;8.23;;;15.50;99.90;;;;;;6041101;23;20461;-77
2023/08/03 22:05:35;;;;;;;11.00;8.57;;;15.50;99.90;;;;;;6063117;23;20360;-76
2023/08/03 22:08:02;;;;;;;11.37;7.83;;;15.60;99.90;;;;;;6062015;23;20400;-77
2023/08/03 22:10:29;;;;;;;11.37;7.77;;;15.70;99.90;;;;;;6053671;23;20404;-78
2023/08/03 22:12:54;;;;;;;15.30;9.03;;;15.60;99.90;;;;;;6030655;23;20487;-76
2023/08/03 22:15:20;;;;;;;10.17;6.90;;;15.60;99.90;;;;;;6005160;23;20380;-78
2023/08/03 22:17:47;;;;;;;11.90;7.17;;;15.60;99.90;;;;;;6004613;23;20220;-76
2023/08/03 22:20:15;;;;;;;10.53;6.20;;;15.70;99.90;;;;;;6028036;23;20486;-77
2023/08/03 22:22:42;;;;;;;7.63;6.13;;;15.60;99.90;;;;;;6029438;23;20404;-77
2023/08/03 22:25:08;;;;;;;7.73;5.90;;;15.60;99.90;;;;;;6052874;23;20383;-76
2023/08/03 22:27:53;;;;;;;9.80;7.50;;;15.60;99.90;;;;;;6058115;23;20406;-77
2023/08/03 22:30:19;;;;;;;12.93;5.57;;;15.70;99.90;;;;;;6112336;23;20432;-74
2023/08/03 22:32:45;;;;;;;6.40;5.07;;;15.70;99.90;;;;;;6112696;23;20424;-74
2023/08/03 22:35:11;;;;;;;7.37;4.77;;;15.80;99.90;;;;;;6088818;23;20157;-76
2023/08/03 22:37:38;;;;;;;5.80;4.50;;;15.80;99.90;;;;;;6113166;23;20241;-77
2023/08/03 22:40:04;;;;;;;6.77;5.57;;;15.80;99.90;;;;;;6064365;23;20577;-77
2023/08/03 22:42:35;;;;;;;8.40;5.47;;;15.80;99.90;;;;;;6070554;23;20357;-79
2023/08/03 22:45:02;;;;;;;6.43;4.10;;;15.70;99.90;;;;;;6069376;23;20377;-78
2023/08/03 22:47:27;;;;;;;7.77;5.70;;;15.70;99.90;;;;;;6114810;23;20413;-75
2023/08/03 22:49:53;;;;;;;8.27;4.87;;;15.80;99.90;;;;;;6094204;23;20397;-76
2023/08/03 22:52:20;;;;;;;5.57;5.07;;;15.70;99.90;;;;;;6090952;23;20172;-75